createdAt,value
2023-05-24T00:01:03.124Z,99176.72
2023-05-24T00:03:08.896Z,99180.06
2023-05-24T00:05:19.037Z,99178.47
2023-05-24T00:07:24.443Z,99184.38
2023-05-24T00:09:30.790Z,99178.56
2023-05-24T00:11:36.605Z,99176.94
2023-05-24T00:13:41.966Z,99181.06
2023-05-24T00:15:47.288Z,99175.22
2023-05-24T00:17:53.014Z,99177.00
2023-05-24T00:19:58.470Z,99176.97
2023-05-24T00:22:06.491Z,99181.19
2023-05-24T00:24:11.650Z,99177.91
2023-05-24T00:26:16.970Z,99173.69
2023-05-24T00:28:31.420Z,99178.69
2023-05-24T00:30:36.676Z,99177.75
2023-05-24T00:32:41.965Z,99176.97
2023-05-24T00:34:47.675Z,99176.13
2023-05-24T00:36:53.155Z,99178.59
2023-05-24T00:39:01.193Z,99176.94
2023-05-24T00:41:06.346Z,99173.63
2023-05-24T00:43:12.259Z,99177.00
2023-05-24T00:45:18.058Z,99182.00
2023-05-24T00:47:23.704Z,99176.97
2023-05-24T00:49:29.408Z,99175.22
2023-05-24T00:51:35.352Z,99176.88
2023-05-24T00:53:41.045Z,99176.88
2023-05-24T00:55:48.711Z,99178.53
2023-05-24T00:57:55.708Z,99176.03
2023-05-24T01:00:01.616Z,99176.88
2023-05-24T01:02:07.336Z,99181.00
2023-05-24T01:04:13.059Z,99180.94
2023-05-24T01:06:19.100Z,99179.22
2023-05-24T01:08:46.099Z,99174.97
2023-05-24T01:11:04.572Z,99180.00
2023-05-24T01:13:28.189Z,99173.28
2023-05-24T01:15:44.901Z,99169.97
2023-05-24T01:18:05.719Z,99171.69
2023-05-24T01:20:14.004Z,99171.63
2023-05-24T01:22:42.372Z,99174.97
2023-05-24T01:25:02.407Z,99169.97
2023-05-24T01:27:14.590Z,99172.47
2023-05-24T01:29:20.122Z,99171.69
2023-05-24T01:31:26.120Z,99165.84
2023-05-24T01:33:32.239Z,99170.81
2023-05-24T01:35:40.577Z,99164.19
2023-05-24T01:37:46.003Z,99163.41
2023-05-24T01:39:51.961Z,99170.13
2023-05-24T01:42:16.769Z,99170.22
2023-05-24T01:44:34.966Z,99162.78
2023-05-24T01:46:41.787Z,99171.19
2023-05-24T01:48:57.919Z,99166.25
2023-05-24T01:51:06.797Z,99176.34
2023-05-24T01:53:17.123Z,99175.56
2023-05-24T01:55:23.492Z,99173.13
2023-05-24T01:57:32.029Z,99177.28
2023-05-24T01:59:39.340Z,99176.41
2023-05-24T02:01:44.483Z,99174.78
2023-05-24T02:03:50.619Z,99179.75
2023-05-24T02:05:55.863Z,99173.97
2023-05-24T02:08:01.107Z,99177.34
2023-05-24T02:10:07.250Z,99179.00
2023-05-24T02:12:14.481Z,99179.81
2023-05-24T02:14:22.127Z,99177.31
2023-05-24T02:16:31.248Z,99174.84
2023-05-24T02:18:37.044Z,99179.00
2023-05-24T02:20:43.944Z,99173.13
2023-05-24T02:22:49.440Z,99170.66
2023-05-24T02:24:54.605Z,99176.47
2023-05-24T02:27:00.025Z,99173.97
2023-05-24T02:29:06.219Z,99173.09
2023-05-24T02:31:13.921Z,99171.41
2023-05-24T02:33:19.851Z,99172.28
2023-05-24T02:35:25.308Z,99171.41
2023-05-24T02:37:30.411Z,99177.28
2023-05-24T02:39:35.842Z,99169.00
2023-05-24T02:41:41.306Z,99170.66
2023-05-24T02:43:46.398Z,99174.00
2023-05-24T02:45:51.789Z,99169.00
2023-05-24T02:47:59.518Z,99174.03
2023-05-24T02:50:06.046Z,99173.19
2023-05-24T02:52:11.187Z,99174.88
2023-05-24T02:54:17.872Z,99175.72
2023-05-24T02:56:23.088Z,99168.22
2023-05-24T02:58:30.628Z,99165.72
2023-05-24T03:00:36.267Z,99163.25
2023-05-24T03:02:41.667Z,99165.75
2023-05-24T03:04:49.408Z,99160.78
2023-05-24T03:06:54.764Z,99155.78
2023-05-24T03:08:59.940Z,99163.25
2023-05-24T03:11:05.288Z,99154.91
2023-05-24T03:13:10.377Z,99148.25
2023-05-24T03:15:16.403Z,99154.09
2023-05-24T03:17:21.887Z,99150.75
2023-05-24T03:19:28.038Z,99153.22
2023-05-24T03:21:36.548Z,99150.72
2023-05-24T03:23:42.301Z,99145.75
2023-05-24T03:25:47.483Z,99149.06
2023-05-24T03:27:52.666Z,99153.22
2023-05-24T03:29:59.019Z,99150.72
2023-05-24T03:32:08.509Z,99161.50
2023-05-24T03:34:13.727Z,99156.50
2023-05-24T03:36:20.835Z,99159.00
2023-05-24T03:38:28.673Z,99153.22
2023-05-24T03:40:34.817Z,99161.50
2023-05-24T03:42:52.071Z,99163.16
2023-05-24T03:45:00.898Z,99166.50
2023-05-24T03:47:06.236Z,99165.66
2023-05-24T03:49:11.349Z,99161.53
2023-05-24T03:51:16.733Z,99167.34
2023-05-24T03:53:23.373Z,99173.16
2023-05-24T03:55:31.422Z,99168.97
2023-05-24T03:57:36.491Z,99177.28
2023-05-24T03:59:41.662Z,99176.47
2023-05-24T04:01:47.090Z,99172.31
2023-05-24T04:03:56.457Z,99172.34
2023-05-24T04:06:02.048Z,99174.03
2023-05-24T04:08:07.483Z,99178.22
2023-05-24T04:10:15.823Z,99177.38
2023-05-24T04:12:24.445Z,99180.72
2023-05-24T04:14:30.066Z,99170.72
2023-05-24T04:16:35.670Z,99174.88
2023-05-24T04:18:45.835Z,99174.91
2023-05-24T04:20:51.175Z,99180.72
2023-05-24T04:22:58.924Z,99189.06
2023-05-24T04:25:04.013Z,99179.06
2023-05-24T04:27:10.182Z,99191.56
2023-05-24T04:29:18.392Z,99191.56
2023-05-24T04:31:24.484Z,99190.72
2023-05-24T04:33:29.916Z,99194.03
2023-05-24T04:35:35.719Z,99189.03
2023-05-24T04:37:41.061Z,99193.16
2023-05-24T04:39:46.953Z,99199.00
2023-05-24T04:41:55.374Z,99194.81
2023-05-24T04:44:00.504Z,99204.81
2023-05-24T04:46:09.448Z,99199.81
2023-05-24T04:48:15.288Z,99205.66
2023-05-24T04:50:20.605Z,99203.16
2023-05-24T04:52:25.676Z,99213.97
2023-05-24T04:54:30.740Z,99205.63
2023-05-24T04:56:36.106Z,99208.94
2023-05-24T04:58:41.658Z,99218.91
2023-05-24T05:00:47.606Z,99208.06
2023-05-24T05:02:55.382Z,99208.91
2023-05-24T05:05:00.720Z,99215.53
2023-05-24T05:07:06.424Z,99221.34
2023-05-24T05:09:14.015Z,99222.16
2023-05-24T05:11:19.307Z,99227.16
2023-05-24T05:13:24.378Z,99227.94
2023-05-24T05:15:29.621Z,99227.13
2023-05-24T05:17:35.252Z,99230.41
2023-05-24T05:19:43.283Z,99237.84
2023-05-24T05:21:48.363Z,99228.63
2023-05-24T05:23:55.180Z,99238.63
2023-05-24T05:26:00.470Z,99236.03
2023-05-24T05:28:05.679Z,99237.63
2023-05-24T05:30:13.530Z,99235.00
2023-05-24T05:32:19.042Z,99236.53
2023-05-24T05:34:24.416Z,99235.50
2023-05-24T05:36:32.496Z,99238.59
2023-05-24T05:38:37.640Z,99239.28
2023-05-24T05:40:42.890Z,99234.97
2023-05-24T05:42:49.331Z,99238.22
2023-05-24T05:44:55.302Z,99239.84
2023-05-24T05:47:00.363Z,99238.28
2023-05-24T05:49:05.669Z,99231.47
2023-05-24T05:51:10.751Z,99232.34
2023-05-24T05:53:19.303Z,99239.84
2023-05-24T05:55:24.618Z,99237.25
2023-05-24T05:57:29.961Z,99233.81
2023-05-24T05:59:36.399Z,99235.47
2023-05-24T06:01:41.696Z,99244.44
2023-05-24T06:03:47.574Z,99241.75
2023-05-24T06:05:53.017Z,99234.47
2023-05-24T06:07:58.129Z,99244.38
2023-05-24T06:10:06.632Z,99240.06
2023-05-24T06:12:11.823Z,99238.91
2023-05-24T06:14:20.005Z,99246.16
2023-05-24T06:16:25.530Z,99240.28
2023-05-24T06:18:30.727Z,99240.03
2023-05-24T06:20:37.214Z,99242.31
2023-05-24T06:22:42.892Z,99247.81
2023-05-24T06:24:49.410Z,99241.44
2023-05-24T06:26:58.213Z,99248.09
2023-05-24T06:29:04.154Z,99241.63
2023-05-24T06:31:09.349Z,99247.53
2023-05-24T06:33:14.399Z,99247.00
2023-05-24T06:35:19.466Z,99242.53
2023-05-24T06:37:25.510Z,99252.16
2023-05-24T06:39:30.929Z,99254.25
2023-05-24T06:41:36.299Z,99254.28
2023-05-24T06:43:44.506Z,99258.31
2023-05-24T06:45:49.853Z,99259.22
2023-05-24T06:47:55.629Z,99256.19
2023-05-24T06:50:01.184Z,99256.53
2023-05-24T06:52:07.467Z,99264.09
2023-05-24T06:54:12.989Z,99275.94
2023-05-24T06:56:18.069Z,99275.25
2023-05-24T06:58:23.138Z,99274.44
2023-05-24T07:00:30.847Z,99276.97
2023-05-24T07:02:36.249Z,99283.22
2023-05-24T07:04:41.441Z,99280.03
2023-05-24T07:06:46.784Z,99286.97
2023-05-24T07:08:51.877Z,99279.66
2023-05-24T07:10:57.467Z,99281.53
2023-05-24T07:13:02.515Z,99285.78
2023-05-24T07:15:10.066Z,99285.56
2023-05-24T07:17:17.869Z,99283.69
2023-05-24T07:19:22.979Z,99277.88
2023-05-24T07:21:28.028Z,99288.66
2023-05-24T07:23:33.107Z,99287.88
2023-05-24T07:25:38.152Z,99292.63
2023-05-24T07:27:43.436Z,99294.72
2023-05-24T07:29:50.206Z,99302.34
2023-05-24T07:31:56.127Z,99303.66
2023-05-24T07:34:03.858Z,99302.78
2023-05-24T07:36:09.805Z,99305.31
2023-05-24T07:38:14.851Z,99296.22
2023-05-24T07:40:20.058Z,99303.19
2023-05-24T07:42:25.466Z,99295.78
2023-05-24T07:44:30.519Z,99298.78
2023-05-24T07:46:35.613Z,99295.81
2023-05-24T07:48:41.051Z,99293.66
2023-05-24T07:50:48.930Z,99287.56
2023-05-24T07:52:55.579Z,99293.34
2023-05-24T07:55:00.921Z,99289.34
2023-05-24T07:57:09.405Z,99288.72
2023-05-24T07:59:15.292Z,99280.03
2023-05-24T08:01:20.955Z,99281.94
2023-05-24T08:03:26.393Z,99283.44
2023-05-24T08:05:31.594Z,99280.19
2023-05-24T08:07:40.671Z,99278.31
2023-05-24T08:09:45.844Z,99280.59
2023-05-24T08:11:51.294Z,99277.41
2023-05-24T08:13:56.674Z,99277.47
2023-05-24T08:16:01.824Z,99272.84
2023-05-24T08:18:07.577Z,99276.69
2023-05-24T08:20:14.853Z,99282.84
2023-05-24T08:22:20.201Z,99278.63
2023-05-24T08:24:28.062Z,99283.59
2023-05-24T08:26:33.125Z,99281.56
2023-05-24T08:28:39.356Z,99277.56
2023-05-24T08:30:44.792Z,99270.34
2023-05-24T08:32:50.120Z,99280.13
2023-05-24T08:35:06.794Z,99272.06
2023-05-24T08:37:23.608Z,99262.88
2023-05-24T08:39:31.556Z,99269.66
2023-05-24T08:41:37.772Z,99271.84
2023-05-24T08:43:45.183Z,99271.09
2023-05-24T08:45:51.572Z,99259.06
2023-05-24T08:47:58.534Z,99272.13
2023-05-24T08:50:04.567Z,99270.66
2023-05-24T08:52:11.504Z,99266.47
2023-05-24T08:54:17.601Z,99263.59
2023-05-24T08:56:25.722Z,99262.13
2023-05-24T08:58:30.823Z,99252.75
2023-05-24T09:00:35.917Z,99261.06
2023-05-24T09:02:42.775Z,99262.44
2023-05-24T09:04:51.469Z,99265.06
2023-05-24T09:06:58.036Z,99259.31
2023-05-24T09:09:06.314Z,99257.88
2023-05-24T09:11:12.436Z,99257.91
2023-05-24T09:13:22.077Z,99265.06
2023-05-24T09:15:27.879Z,99270.66
2023-05-24T09:17:34.791Z,99263.72
2023-05-24T09:19:40.078Z,99265.41
2023-05-24T09:21:45.181Z,99257.41
2023-05-24T09:23:52.061Z,99260.22
2023-05-24T09:25:57.289Z,99261.28
2023-05-24T09:28:09.640Z,99267.47
2023-05-24T09:30:18.988Z,99260.13
2023-05-24T09:32:26.334Z,99263.78
2023-05-24T09:34:31.712Z,99274.47
2023-05-24T09:36:36.959Z,99272.16
2023-05-24T09:38:42.221Z,99272.81
2023-05-24T09:40:47.947Z,99273.69
2023-05-24T09:43:05.317Z,99271.94
2023-05-24T09:45:12.386Z,99278.22
2023-05-24T09:47:20.895Z,99268.78
2023-05-24T09:52:25.751Z,99274.16
2023-05-24T09:54:31.091Z,99277.63
2023-05-24T09:56:37.525Z,99273.66
2023-05-24T09:58:42.927Z,99281.53
2023-05-24T10:00:48.211Z,99276.16
2023-05-24T10:03:07.052Z,99272.50
2023-05-24T10:05:14.214Z,99277.09
2023-05-24T10:07:19.809Z,99268.72
2023-05-24T10:09:24.905Z,99273.03
2023-05-24T10:11:30.577Z,99278.75
2023-05-24T10:13:36.677Z,99276.19
2023-05-24T10:15:41.829Z,99269.56
2023-05-24T10:17:47.126Z,99283.81
2023-05-24T10:19:55.125Z,99270.88
2023-05-24T10:22:03.817Z,99270.00
2023-05-24T10:24:10.144Z,99274.47
2023-05-24T10:26:17.442Z,99271.47
2023-05-24T10:28:25.319Z,99259.66
2023-05-24T10:30:37.929Z,99257.28
2023-05-24T10:32:45.349Z,99263.22
2023-05-24T10:34:51.481Z,99260.03
2023-05-24T10:37:01.081Z,99263.88
2023-05-24T10:39:06.424Z,99254.53
2023-05-24T10:41:13.501Z,99252.59
2023-05-24T10:43:20.522Z,99255.63
2023-05-24T10:45:40.812Z,99249.38
2023-05-24T10:47:46.068Z,99243.63
2023-05-24T10:49:53.525Z,99245.09
2023-05-24T10:52:05.295Z,99251.84
2023-05-24T10:54:29.552Z,99249.34
2023-05-24T10:56:42.705Z,99234.50
2023-05-24T10:59:01.159Z,99241.19
2023-05-24T11:01:06.390Z,99246.53
2023-05-24T11:03:14.230Z,99252.31
2023-05-24T11:05:19.972Z,99248.03
2023-05-24T11:07:33.470Z,99243.94
2023-05-24T11:09:46.039Z,99240.72
2023-05-24T11:11:52.374Z,99252.16
2023-05-24T11:13:59.900Z,99250.97
2023-05-24T11:16:05.725Z,99245.97
2023-05-24T11:18:18.509Z,99228.13
2023-05-24T11:20:23.909Z,99236.16
2023-05-24T11:22:32.657Z,99229.66
2023-05-24T11:24:38.428Z,99215.75
2023-05-24T11:26:44.152Z,99220.84
2023-05-24T11:28:50.269Z,99220.88
2023-05-24T11:30:55.315Z,99218.63
2023-05-24T11:33:02.253Z,99225.31
2023-05-24T11:35:11.724Z,99214.78
2023-05-24T11:37:18.805Z,99210.19
2023-05-24T11:39:27.154Z,99203.97
2023-05-24T11:41:32.353Z,99210.78
2023-05-24T11:43:37.454Z,99201.53
2023-05-24T11:45:44.000Z,99213.72
2023-05-24T11:47:51.278Z,99204.13
2023-05-24T11:49:56.378Z,99202.28
2023-05-24T11:52:02.919Z,99208.94
2023-05-24T11:54:08.407Z,99208.94
2023-05-24T11:56:16.027Z,99203.34
2023-05-24T11:58:26.819Z,99214.53
2023-05-24T12:00:32.032Z,99204.94
2023-05-24T12:02:37.283Z,99204.22
2023-05-24T12:04:42.411Z,99187.53
2023-05-24T12:06:48.197Z,99183.97
2023-05-24T12:08:54.030Z,99191.13
2023-05-24T12:10:59.611Z,99196.75
2023-05-24T12:13:08.760Z,99203.50
2023-05-24T12:15:15.055Z,99205.38
2023-05-24T12:17:20.555Z,99198.66
2023-05-24T12:19:33.925Z,99195.06
2023-05-24T12:21:44.044Z,99194.44
2023-05-24T12:23:51.239Z,99198.06
2023-05-24T12:26:01.682Z,99198.03
2023-05-24T12:28:09.775Z,99194.44
2023-05-24T12:30:21.964Z,99191.47
2023-05-24T12:32:27.124Z,99183.09
2023-05-24T12:34:32.552Z,99187.84
2023-05-24T12:36:38.490Z,99188.38
2023-05-24T12:38:43.859Z,99189.97
2023-05-24T12:41:00.055Z,99187.13
2023-05-24T12:43:18.916Z,99188.94
2023-05-24T12:45:26.365Z,99203.19
2023-05-24T12:47:31.536Z,99196.84
2023-05-24T12:49:37.100Z,99184.72
2023-05-24T12:51:42.245Z,99203.00
2023-05-24T12:53:47.674Z,99189.44
2023-05-24T12:55:56.230Z,99194.72
2023-05-24T12:58:03.513Z,99198.34
2023-05-24T13:00:14.292Z,99196.50
2023-05-24T13:02:20.122Z,99193.84
2023-05-24T13:04:27.795Z,99194.50
2023-05-24T13:06:33.172Z,99189.97
2023-05-24T13:08:40.654Z,99197.69
2023-05-24T13:10:46.306Z,99203.44
2023-05-24T13:12:51.648Z,99201.25
2023-05-24T13:14:56.888Z,99188.69
2023-05-24T13:17:04.612Z,99186.47
2023-05-24T13:19:10.507Z,99183.00
2023-05-24T13:21:15.868Z,99168.84
2023-05-24T13:23:21.054Z,99171.09
2023-05-24T13:25:26.848Z,99171.28
2023-05-24T13:27:32.333Z,99162.69
2023-05-24T13:29:48.907Z,99162.41
2023-05-24T13:32:05.783Z,99161.88
2023-05-24T13:34:11.782Z,99172.06
2023-05-24T13:36:17.625Z,99151.13
2023-05-24T13:38:23.508Z,99153.88
2023-05-24T13:40:28.804Z,99142.63
2023-05-24T13:42:33.958Z,99151.47
2023-05-24T13:44:39.365Z,99160.84
2023-05-24T13:46:46.146Z,99161.47
2023-05-24T13:48:54.066Z,99157.19
2023-05-24T13:50:59.472Z,99144.84
2023-05-24T13:53:05.699Z,99144.31
2023-05-24T13:55:12.231Z,99140.81
2023-05-24T13:57:17.410Z,99138.88
2023-05-24T13:59:22.529Z,99145.94
2023-05-24T14:01:28.929Z,99134.97
2023-05-24T14:03:34.571Z,99132.63
2023-05-24T14:05:43.402Z,99133.47
2023-05-24T14:07:49.147Z,99138.97
2023-05-24T14:09:54.284Z,99135.75
2023-05-24T14:11:59.392Z,99128.91
2023-05-24T14:16:13.454Z,99151.13
2023-05-24T14:18:18.810Z,99159.81
2023-05-24T14:20:24.031Z,99159.16
2023-05-24T14:22:32.376Z,99164.63
2023-05-24T14:24:38.342Z,99161.97
2023-05-24T14:26:44.117Z,99163.06
2023-05-24T14:28:49.273Z,99153.13
2023-05-24T14:30:54.510Z,99158.88
2023-05-24T14:33:01.181Z,99163.16
2023-05-24T14:35:06.926Z,99161.09
2023-05-24T14:37:12.018Z,99163.72
2023-05-24T14:39:19.738Z,99166.28
2023-05-24T14:41:25.457Z,99170.22
2023-05-24T14:43:30.541Z,99168.63
2023-05-24T14:45:36.043Z,99166.28
2023-05-24T14:47:41.785Z,99157.41
2023-05-24T14:49:46.865Z,99157.00
2023-05-24T14:51:52.044Z,99158.22
2023-05-24T14:53:57.085Z,99157.94
2023-05-24T14:56:06.403Z,99146.78
2023-05-24T14:58:12.440Z,99137.19
2023-05-24T15:00:22.678Z,99147.28
2023-05-24T15:02:29.141Z,99139.78
2023-05-24T15:04:34.285Z,99129.09
2023-05-24T15:06:40.160Z,99134.19
2023-05-24T15:08:45.658Z,99132.09
2023-05-24T15:10:51.253Z,99139.56
2023-05-24T15:12:59.255Z,99139.63
2023-05-24T15:15:05.183Z,99137.81
2023-05-24T15:17:10.298Z,99154.50
2023-05-24T15:19:16.002Z,99159.28
2023-05-24T15:21:22.144Z,99172.91
2023-05-24T15:23:28.627Z,99161.81
2023-05-24T15:25:33.742Z,99165.72
2023-05-24T15:27:38.792Z,99165.78
2023-05-24T15:29:46.380Z,99170.50
2023-05-24T15:31:51.523Z,99174.59
2023-05-24T15:33:56.846Z,99176.75
2023-05-24T15:36:01.950Z,99183.72
2023-05-24T15:38:07.423Z,99177.56
2023-05-24T15:40:15.297Z,99180.41
2023-05-24T15:42:20.640Z,99171.72
2023-05-24T15:44:26.007Z,99182.13
2023-05-24T15:46:33.643Z,99178.28
2023-05-24T15:48:39.489Z,99177.81
2023-05-24T15:51:09.209Z,99173.81
2023-05-24T15:53:11.260Z,99168.53
2023-05-24T15:55:16.318Z,99171.84
2023-05-24T15:57:21.416Z,99158.78
2023-05-24T15:59:27.117Z,99151.50
2023-05-24T16:01:34.989Z,99147.78
2023-05-24T16:03:40.641Z,99146.72
2023-05-24T16:05:48.790Z,99151.25
2023-05-24T16:07:54.112Z,99141.78
2023-05-24T16:09:59.379Z,99149.94
2023-05-24T16:12:04.511Z,99148.06
2023-05-24T16:14:10.737Z,99151.13
2023-05-24T16:16:15.816Z,99156.63
2023-05-24T16:18:27.116Z,99160.88
2023-05-24T16:20:32.510Z,99159.00
2023-05-24T16:22:39.901Z,99164.44
2023-05-24T16:24:46.208Z,99160.19
2023-05-24T16:26:51.240Z,99152.34
2023-05-24T16:28:56.287Z,99156.94
2023-05-24T16:31:03.829Z,99160.81
2023-05-24T16:33:09.357Z,99164.22
2023-05-24T16:35:17.047Z,99161.78
2023-05-24T16:37:22.121Z,99160.19
2023-05-24T16:39:29.026Z,99163.66
2023-05-24T16:41:37.718Z,99164.19
2023-05-24T16:43:43.129Z,99161.34
2023-05-24T16:45:48.629Z,99165.44
2023-05-24T16:47:54.138Z,99161.97
2023-05-24T16:49:59.780Z,99162.41
2023-05-24T16:52:07.667Z,99159.72
2023-05-24T16:54:13.034Z,99159.38
2023-05-24T16:56:18.636Z,99159.38
2023-05-24T16:58:24.028Z,99158.41
2023-05-24T17:00:29.717Z,99156.00
2023-05-24T17:02:34.987Z,99148.78
2023-05-24T17:04:40.400Z,99150.19
2023-05-24T17:06:45.503Z,99147.81
2023-05-24T17:08:53.124Z,99153.75
2023-05-24T17:10:59.252Z,99145.47
2023-05-24T17:13:04.311Z,99152.44
2023-05-24T17:15:11.060Z,99147.00
2023-05-24T17:17:16.446Z,99150.03
2023-05-24T17:19:21.728Z,99150.50
2023-05-24T17:21:28.073Z,99146.25
2023-05-24T17:23:36.731Z,99146.31
2023-05-24T17:25:44.367Z,99153.38
2023-05-24T17:27:49.500Z,99147.84
2023-05-24T17:29:54.532Z,99143.25
2023-05-24T17:31:59.622Z,99145.75
2023-05-24T17:34:04.994Z,99140.25
2023-05-24T17:36:10.572Z,99151.19
2023-05-24T17:38:15.884Z,99152.66
2023-05-24T17:40:21.284Z,99156.03
2023-05-24T17:42:28.904Z,99158.81
2023-05-24T17:44:33.975Z,99169.69
2023-05-24T17:46:41.286Z,99172.34
2023-05-24T17:48:47.986Z,99170.97
2023-05-24T17:50:53.079Z,99171.75
2023-05-24T17:52:58.500Z,99175.44
2023-05-24T17:55:03.854Z,99183.38
2023-05-24T17:57:09.522Z,99170.03
2023-05-24T17:59:17.241Z,99171.38
2023-05-24T18:01:22.344Z,99175.34
2023-05-24T18:03:27.484Z,99178.31
2023-05-24T18:05:32.539Z,99182.53
2023-05-24T18:07:37.820Z,99188.44
2023-05-24T18:09:42.913Z,99196.91
2023-05-24T18:11:48.209Z,99201.63
2023-05-24T18:13:53.569Z,99198.53
2023-05-24T18:16:02.375Z,99197.88
2023-05-24T18:18:08.219Z,99201.75
2023-05-24T18:20:15.425Z,99205.94
2023-05-24T18:22:21.568Z,99213.22
2023-05-24T18:24:26.673Z,99203.69
2023-05-24T18:26:31.794Z,99210.78
2023-05-24T18:28:38.166Z,99213.97
2023-05-24T18:30:45.135Z,99221.28
2023-05-24T18:33:05.491Z,99220.91
2023-05-24T18:35:15.608Z,99224.38
2023-05-24T18:37:23.452Z,99222.31
2023-05-24T18:39:28.539Z,99226.22
2023-05-24T18:41:33.606Z,99232.66
2023-05-24T18:43:38.685Z,99227.09
2023-05-24T18:45:43.929Z,99229.31
2023-05-24T18:47:51.917Z,99226.59
2023-05-24T18:49:56.931Z,99233.91
2023-05-24T18:52:03.892Z,99232.72
2023-05-24T18:54:09.242Z,99240.13
2023-05-24T18:56:15.100Z,99237.53
2023-05-24T18:58:20.712Z,99243.25
2023-05-24T19:00:25.926Z,99244.47
2023-05-24T19:02:31.178Z,99249.09
2023-05-24T19:04:39.412Z,99244.63
2023-05-24T19:06:44.461Z,99244.19
2023-05-24T19:08:49.517Z,99254.53
2023-05-24T19:10:54.564Z,99257.53
2023-05-24T19:13:01.298Z,99253.63
2023-05-24T19:15:07.710Z,99260.59
2023-05-24T19:17:12.772Z,99266.81
2023-05-24T19:19:17.844Z,99270.56
2023-05-24T19:21:25.749Z,99275.22
2023-05-24T19:23:30.863Z,99268.59
2023-05-24T19:25:42.043Z,99275.41
2023-05-24T19:27:59.135Z,99279.88
2023-05-24T19:30:05.708Z,99286.94
2023-05-24T19:32:11.825Z,99288.91
2023-05-24T19:34:17.399Z,99288.22
2023-05-24T19:36:26.096Z,99296.03
2023-05-24T19:38:31.436Z,99297.81
2023-05-24T19:40:36.493Z,99293.84
2023-05-24T19:42:41.554Z,99297.41
2023-05-24T19:44:46.889Z,99305.13
2023-05-24T19:46:51.933Z,99309.38
2023-05-24T19:48:57.929Z,99309.63
2023-05-24T19:51:03.432Z,99310.63
2023-05-24T19:53:11.107Z,99310.75
2023-05-24T19:55:16.410Z,99314.19
2023-05-24T19:57:21.696Z,99317.69
2023-05-24T19:59:27.118Z,99322.00
2023-05-24T20:01:32.349Z,99317.91
2023-05-24T20:03:37.511Z,99322.91
2023-05-24T20:05:43.063Z,99327.13
2023-05-24T20:07:48.369Z,99325.56
2023-05-24T20:09:56.671Z,99332.38
2023-05-24T20:12:01.878Z,99341.63
2023-05-24T20:14:07.190Z,99338.34
2023-05-24T20:16:12.298Z,99341.69
2023-05-24T20:18:17.495Z,99337.59
2023-05-24T20:20:23.003Z,99344.38
2023-05-24T20:22:28.335Z,99341.84
2023-05-24T20:24:33.594Z,99341.91
2023-05-24T20:26:41.201Z,99339.47
2023-05-24T20:28:46.244Z,99342.06
2023-05-24T20:30:52.061Z,99344.59
2023-05-24T20:32:57.179Z,99345.47
2023-05-24T20:35:02.295Z,99344.66
2023-05-24T20:37:07.818Z,99347.97
2023-05-24T20:39:12.880Z,99350.50
2023-05-24T20:41:18.319Z,99347.16
2023-05-24T20:43:25.920Z,99349.69
2023-05-24T20:45:31.395Z,99351.34
2023-05-24T20:47:36.555Z,99353.88
2023-05-24T20:49:42.077Z,99355.56
2023-05-24T20:51:47.398Z,99355.53
2023-05-24T20:53:53.461Z,99342.22
2023-05-24T20:55:59.382Z,99351.38
2023-05-24T20:58:04.404Z,99354.75
2023-05-24T21:00:13.926Z,99356.44
2023-05-24T21:02:19.114Z,99357.25
2023-05-24T21:04:24.242Z,99363.97
2023-05-24T21:06:30.417Z,99359.81
2023-05-24T21:08:37.039Z,99359.84
2023-05-24T21:10:42.187Z,99369.03
2023-05-24T21:12:48.036Z,99372.34
2023-05-24T21:14:55.545Z,99370.69
2023-05-24T21:17:03.444Z,99373.19
2023-05-24T21:19:08.525Z,99369.03
2023-05-24T21:21:13.831Z,99369.03
2023-05-24T21:23:18.924Z,99369.03
2023-05-24T21:25:24.665Z,99368.19
2023-05-24T21:27:30.197Z,99369.00
2023-05-24T21:29:38.022Z,99370.66
2023-05-24T21:31:43.588Z,99378.13
2023-05-24T21:33:51.275Z,99374.84
2023-05-24T21:35:58.519Z,99374.03
2023-05-24T21:38:03.623Z,99385.69
2023-05-24T21:40:10.477Z,99382.34
2023-05-24T21:42:15.536Z,99381.47
2023-05-24T21:44:21.215Z,99384.75
2023-05-24T21:46:27.102Z,99378.94
2023-05-24T21:48:32.202Z,99384.78
2023-05-24T21:50:39.817Z,99377.28
2023-05-24T21:52:44.895Z,99383.09
2023-05-24T21:54:50.313Z,99392.25
2023-05-24T21:56:55.487Z,99403.88
2023-05-24T21:59:00.776Z,99395.59
2023-05-24T22:01:05.854Z,99393.13
2023-05-24T22:03:11.567Z,99392.25
2023-05-24T22:05:17.042Z,99389.78
2023-05-24T22:07:24.809Z,99398.94
2023-05-24T22:09:29.979Z,99394.75
2023-05-24T22:11:35.657Z,99407.16
2023-05-24T22:13:41.504Z,99402.16
2023-05-24T22:15:46.784Z,99404.59
2023-05-24T22:17:51.986Z,99406.28
2023-05-24T22:19:57.518Z,99407.13
2023-05-24T22:22:03.443Z,99405.47
2023-05-24T22:24:11.915Z,99407.88
2023-05-24T22:26:17.369Z,99412.09
2023-05-24T22:28:25.244Z,99411.25
2023-05-24T22:30:32.171Z,99413.72
2023-05-24T22:32:37.356Z,99409.53
2023-05-24T22:34:42.898Z,99414.53
2023-05-24T22:36:48.060Z,99405.31
2023-05-24T22:38:53.198Z,99405.25
2023-05-24T22:41:01.020Z,99412.72
2023-05-24T22:43:06.300Z,99406.09
2023-05-24T22:45:14.064Z,99403.66
2023-05-24T22:47:23.045Z,99400.31
2023-05-24T22:49:29.698Z,99400.31
2023-05-24T22:51:35.274Z,99407.06
2023-05-24T22:53:40.703Z,99412.84
2023-05-24T22:55:46.260Z,99410.34
2023-05-24T22:57:54.068Z,99415.38
2023-05-24T22:59:59.191Z,99419.50
2023-05-24T23:02:04.348Z,99416.09
2023-05-24T23:04:20.332Z,99423.50
2023-05-24T23:06:28.800Z,99429.25
2023-05-24T23:08:34.728Z,99426.72
2023-05-24T23:10:40.923Z,99429.22
2023-05-24T23:12:46.225Z,99429.94
2023-05-24T23:14:58.427Z,99425.69
2023-05-24T23:17:05.151Z,99427.34
2023-05-24T23:19:10.614Z,99436.44
2023-05-24T23:21:17.160Z,99436.44
2023-05-24T23:23:22.907Z,99438.00
2023-05-24T23:25:28.737Z,99435.47
2023-05-24T23:27:33.961Z,99436.28
2023-05-24T23:29:39.570Z,99429.63
2023-05-24T23:31:47.435Z,99434.69
2023-05-24T23:33:52.954Z,99437.88
2023-05-24T23:35:58.905Z,99440.47
2023-05-24T23:38:04.087Z,99444.59
2023-05-24T23:40:11.372Z,99433.00
2023-05-24T23:42:16.575Z,99434.69
2023-05-24T23:44:23.779Z,99428.16
2023-05-24T23:46:29.415Z,99434.75
2023-05-24T23:48:37.519Z,99436.44
2023-05-24T23:50:53.556Z,99429.06
2023-05-24T23:52:59.451Z,99438.94
2023-05-24T23:55:05.014Z,99431.38
2023-05-24T23:57:10.508Z,99434.69
2023-05-24T23:59:16.169Z,99439.75
